sensor_id;sensor_type;location;lat;lon;timestamp;temperature;humidity
1337;DHT22;662;48.814;9.318;2024-03-17T00:02:22;11.10;69.60
1337;DHT22;662;48.814;9.318;2024-03-17T00:04:48;11.00;69.80
1337;DHT22;662;48.814;9.318;2024-03-17T00:07:14;10.90;70.10
1337;DHT22;662;48.814;9.318;2024-03-17T00:09:40;10.90;70.40
1337;DHT22;662;48.814;9.318;2024-03-17T00:12:06;10.80;70.30
1337;DHT22;662;48.814;9.318;2024-03-17T00:14:33;10.80;70.40
1337;DHT22;662;48.814;9.318;2024-03-17T00:17:03;10.70;70.30
1337;DHT22;662;48.814;9.318;2024-03-17T00:19:28;10.70;70.50
1337;DHT22;662;48.814;9.318;2024-03-17T00:21:54;10.60;70.60
1337;DHT22;662;48.814;9.318;2024-03-17T00:24:20;10.60;70.80
1337;DHT22;662;48.814;9.318;2024-03-17T00:26:46;10.60;71.00
1337;DHT22;662;48.814;9.318;2024-03-17T00:29:12;10.60;71.10
1337;DHT22;662;48.814;9.318;2024-03-17T00:31:40;10.60;71.20
1337;DHT22;662;48.814;9.318;2024-03-17T00:34:06;10.70;71.40
1337;DHT22;662;48.814;9.318;2024-03-17T00:36:31;10.60;71.20
1337;DHT22;662;48.814;9.318;2024-03-17T00:38:57;10.70;71.20
1337;DHT22;662;48.814;9.318;2024-03-17T00:41:23;10.60;71.00
1337;DHT22;662;48.814;9.318;2024-03-17T00:43:49;10.60;70.80
1337;DHT22;662;48.814;9.318;2024-03-17T00:46:16;10.60;70.70
1337;DHT22;662;48.814;9.318;2024-03-17T00:48:43;10.60;70.70
1337;DHT22;662;48.814;9.318;2024-03-17T00:51:09;10.50;70.70
1337;DHT22;662;48.814;9.318;2024-03-17T00:53:34;10.50;70.80
1337;DHT22;662;48.814;9.318;2024-03-17T00:56:00;10.50;70.60
1337;DHT22;662;48.814;9.318;2024-03-17T00:58:27;10.50;70.30
1337;DHT22;662;48.814;9.318;2024-03-17T01:00:52;10.50;70.20
1337;DHT22;662;48.814;9.318;2024-03-17T01:03:18;10.40;70.10
1337;DHT22;662;48.814;9.318;2024-03-17T01:05:44;10.40;70.30
1337;DHT22;662;48.814;9.318;2024-03-17T01:08:16;10.40;70.30
1337;DHT22;662;48.814;9.318;2024-03-17T01:10:42;10.40;70.30
1337;DHT22;662;48.814;9.318;2024-03-17T01:13:08;10.30;70.30
1337;DHT22;662;48.814;9.318;2024-03-17T01:15:35;10.30;70.70
1337;DHT22;662;48.814;9.318;2024-03-17T01:18:02;10.30;70.70
1337;DHT22;662;48.814;9.318;2024-03-17T01:20:30;10.20;70.60
1337;DHT22;662;48.814;9.318;2024-03-17T01:22:55;10.20;70.70
1337;DHT22;662;48.814;9.318;2024-03-17T01:25:21;10.20;71.10
1337;DHT22;662;48.814;9.318;2024-03-17T01:27:46;10.10;71.30
1337;DHT22;662;48.814;9.318;2024-03-17T01:30:12;10.10;72.10
1337;DHT22;662;48.814;9.318;2024-03-17T01:32:38;10.10;71.30
1337;DHT22;662;48.814;9.318;2024-03-17T01:35:04;10.10;71.30
1337;DHT22;662;48.814;9.318;2024-03-17T01:37:31;10.00;71.30
1337;DHT22;662;48.814;9.318;2024-03-17T01:40:00;10.00;71.60
1337;DHT22;662;48.814;9.318;2024-03-17T01:42:25;10.00;71.80
1337;DHT22;662;48.814;9.318;2024-03-17T01:44:51;10.00;72.00
1337;DHT22;662;48.814;9.318;2024-03-17T01:47:18;10.00;72.00
1337;DHT22;662;48.814;9.318;2024-03-17T01:49:46;9.90;73.20
1337;DHT22;662;48.814;9.318;2024-03-17T01:52:13;9.90;73.30
1337;DHT22;662;48.814;9.318;2024-03-17T01:54:40;9.90;73.50
1337;DHT22;662;48.814;9.318;2024-03-17T01:57:06;9.90;73.70
1337;DHT22;662;48.814;9.318;2024-03-17T01:59:32;9.90;73.70
1337;DHT22;662;48.814;9.318;2024-03-17T02:01:58;10.00;72.50
1337;DHT22;662;48.814;9.318;2024-03-17T02:04:23;9.90;73.30
1337;DHT22;662;48.814;9.318;2024-03-17T02:06:49;9.90;73.20
1337;DHT22;662;48.814;9.318;2024-03-17T02:09:15;9.90;73.20
1337;DHT22;662;48.814;9.318;2024-03-17T02:11:40;9.90;73.30
1337;DHT22;662;48.814;9.318;2024-03-17T02:14:07;9.80;73.30
1337;DHT22;662;48.814;9.318;2024-03-17T02:16:33;9.90;73.40
1337;DHT22;662;48.814;9.318;2024-03-17T02:18:59;9.80;73.10
1337;DHT22;662;48.814;9.318;2024-03-17T02:21:25;9.80;73.10
1337;DHT22;662;48.814;9.318;2024-03-17T02:23:54;9.70;73.10
1337;DHT22;662;48.814;9.318;2024-03-17T02:26:20;9.70;73.30
1337;DHT22;662;48.814;9.318;2024-03-17T02:28:47;9.80;73.50
1337;DHT22;662;48.814;9.318;2024-03-17T02:31:14;9.70;74.20
1337;DHT22;662;48.814;9.318;2024-03-17T02:33:41;9.70;73.80
1337;DHT22;662;48.814;9.318;2024-03-17T02:36:07;9.70;73.80
1337;DHT22;662;48.814;9.318;2024-03-17T02:38:33;9.70;73.90
1337;DHT22;662;48.814;9.318;2024-03-17T02:41:18;9.70;74.00
1337;DHT22;662;48.814;9.318;2024-03-17T02:43:44;9.60;74.10
1337;DHT22;662;48.814;9.318;2024-03-17T02:46:14;9.60;74.20
1337;DHT22;662;48.814;9.318;2024-03-17T02:48:41;9.60;74.10
1337;DHT22;662;48.814;9.318;2024-03-17T02:51:17;9.60;74.00
1337;DHT22;662;48.814;9.318;2024-03-17T02:53:47;9.60;74.10
1337;DHT22;662;48.814;9.318;2024-03-17T02:56:14;9.60;74.10
1337;DHT22;662;48.814;9.318;2024-03-17T02:58:42;9.60;74.30
1337;DHT22;662;48.814;9.318;2024-03-17T03:01:08;9.60;74.30
1337;DHT22;662;48.814;9.318;2024-03-17T03:03:35;9.60;74.40
1337;DHT22;662;48.814;9.318;2024-03-17T03:06:04;9.60;74.50
1337;DHT22;662;48.814;9.318;2024-03-17T03:08:35;9.60;74.70
1337;DHT22;662;48.814;9.318;2024-03-17T03:11:02;9.60;74.80
1337;DHT22;662;48.814;9.318;2024-03-17T03:13:29;9.60;74.90
1337;DHT22;662;48.814;9.318;2024-03-17T03:15:55;9.60;75.00
1337;DHT22;662;48.814;9.318;2024-03-17T03:18:20;9.60;75.00
1337;DHT22;662;48.814;9.318;2024-03-17T03:20:52;9.60;75.00
1337;DHT22;662;48.814;9.318;2024-03-17T03:23:19;9.60;75.00
1337;DHT22;662;48.814;9.318;2024-03-17T03:25:45;9.60;75.10
1337;DHT22;662;48.814;9.318;2024-03-17T03:28:12;9.60;75.10
1337;DHT22;662;48.814;9.318;2024-03-17T03:30:38;9.60;75.00
1337;DHT22;662;48.814;9.318;2024-03-17T03:33:03;9.60;75.20
1337;DHT22;662;48.814;9.318;2024-03-17T03:35:31;9.60;75.30
1337;DHT22;662;48.814;9.318;2024-03-17T03:37:56;9.60;75.30
1337;DHT22;662;48.814;9.318;2024-03-17T03:40:22;9.60;75.30
1337;DHT22;662;48.814;9.318;2024-03-17T03:42:48;9.70;75.50
1337;DHT22;662;48.814;9.318;2024-03-17T03:45:13;9.70;75.40
1337;DHT22;662;48.814;9.318;2024-03-17T03:47:40;9.60;75.30
1337;DHT22;662;48.814;9.318;2024-03-17T03:50:15;9.70;75.40
1337;DHT22;662;48.814;9.318;2024-03-17T03:52:41;9.70;75.30
1337;DHT22;662;48.814;9.318;2024-03-17T03:55:08;9.70;75.20
1337;DHT22;662;48.814;9.318;2024-03-17T03:57:40;9.70;75.20
1337;DHT22;662;48.814;9.318;2024-03-17T04:00:07;9.70;75.30
1337;DHT22;662;48.814;9.318;2024-03-17T04:02:43;9.60;75.00
1337;DHT22;662;48.814;9.318;2024-03-17T04:05:09;9.60;74.90
1337;DHT22;662;48.814;9.318;2024-03-17T04:07:36;9.60;74.90
1337;DHT22;662;48.814;9.318;2024-03-17T04:10:03;9.60;75.00
1337;DHT22;662;48.814;9.318;2024-03-17T04:12:29;9.60;75.20
1337;DHT22;662;48.814;9.318;2024-03-17T04:14:59;9.60;75.10
1337;DHT22;662;48.814;9.318;2024-03-17T04:17:25;9.60;75.10
1337;DHT22;662;48.814;9.318;2024-03-17T04:19:53;9.60;75.20
1337;DHT22;662;48.814;9.318;2024-03-17T04:22:20;9.60;75.10
1337;DHT22;662;48.814;9.318;2024-03-17T04:24:48;9.70;75.10
1337;DHT22;662;48.814;9.318;2024-03-17T04:27:21;9.70;75.10
1337;DHT22;662;48.814;9.318;2024-03-17T04:29:47;9.70;75.20
1337;DHT22;662;48.814;9.318;2024-03-17T04:32:14;9.70;75.10
1337;DHT22;662;48.814;9.318;2024-03-17T04:34:39;9.70;75.10
1337;DHT22;662;48.814;9.318;2024-03-17T04:37:05;9.70;74.90
1337;DHT22;662;48.814;9.318;2024-03-17T04:39:31;9.70;74.90
1337;DHT22;662;48.814;9.318;2024-03-17T04:41:57;9.70;74.80
1337;DHT22;662;48.814;9.318;2024-03-17T04:44:23;9.70;74.80
1337;DHT22;662;48.814;9.318;2024-03-17T04:46:49;9.70;74.90
1337;DHT22;662;48.814;9.318;2024-03-17T04:49:14;9.70;74.90
1337;DHT22;662;48.814;9.318;2024-03-17T04:51:40;9.70;74.80
1337;DHT22;662;48.814;9.318;2024-03-17T04:54:05;9.70;74.80
1337;DHT22;662;48.814;9.318;2024-03-17T04:56:32;9.60;74.70
1337;DHT22;662;48.814;9.318;2024-03-17T04:58:58;9.60;74.70
1337;DHT22;662;48.814;9.318;2024-03-17T05:01:24;9.50;74.60
1337;DHT22;662;48.814;9.318;2024-03-17T05:03:53;9.60;74.70
1337;DHT22;662;48.814;9.318;2024-03-17T05:06:19;9.60;74.70
1337;DHT22;662;48.814;9.318;2024-03-17T05:08:44;9.60;74.50
1337;DHT22;662;48.814;9.318;2024-03-17T05:11:11;9.50;74.30
1337;DHT22;662;48.814;9.318;2024-03-17T05:13:37;9.50;74.30
1337;DHT22;662;48.814;9.318;2024-03-17T05:16:06;9.50;74.30
1337;DHT22;662;48.814;9.318;2024-03-17T05:18:31;9.50;74.20
1337;DHT22;662;48.814;9.318;2024-03-17T05:21:03;9.50;74.00
1337;DHT22;662;48.814;9.318;2024-03-17T05:23:30;9.50;74.00
1337;DHT22;662;48.814;9.318;2024-03-17T05:26:01;9.50;73.80
1337;DHT22;662;48.814;9.318;2024-03-17T05:28:29;9.40;73.80
1337;DHT22;662;48.814;9.318;2024-03-17T05:30:55;9.40;73.90
1337;DHT22;662;48.814;9.318;2024-03-17T05:33:23;9.40;74.10
1337;DHT22;662;48.814;9.318;2024-03-17T05:38:28;9.40;74.20
1337;DHT22;662;48.814;9.318;2024-03-17T05:41:01;9.40;74.30
1337;DHT22;662;48.814;9.318;2024-03-17T05:43:28;9.40;74.30
1337;DHT22;662;48.814;9.318;2024-03-17T05:45:56;9.30;74.30
1337;DHT22;662;48.814;9.318;2024-03-17T05:48:22;9.30;74.40
1337;DHT22;662;48.814;9.318;2024-03-17T05:50:49;9.30;74.30
1337;DHT22;662;48.814;9.318;2024-03-17T05:53:17;9.30;74.50
1337;DHT22;662;48.814;9.318;2024-03-17T05:55:43;9.30;74.60
1337;DHT22;662;48.814;9.318;2024-03-17T05:58:09;9.30;74.80
1337;DHT22;662;48.814;9.318;2024-03-17T06:00:35;9.30;74.90
1337;DHT22;662;48.814;9.318;2024-03-17T06:03:01;9.30;75.00
1337;DHT22;662;48.814;9.318;2024-03-17T06:05:27;9.30;75.00
1337;DHT22;662;48.814;9.318;2024-03-17T06:07:53;9.30;75.00
1337;DHT22;662;48.814;9.318;2024-03-17T06:10:19;9.30;75.00
1337;DHT22;662;48.814;9.318;2024-03-17T06:12:49;9.30;75.00
1337;DHT22;662;48.814;9.318;2024-03-17T06:15:15;9.20;74.60
1337;DHT22;662;48.814;9.318;2024-03-17T06:17:42;9.20;74.60
1337;DHT22;662;48.814;9.318;2024-03-17T06:20:08;9.20;74.70
1337;DHT22;662;48.814;9.318;2024-03-17T06:22:38;9.20;74.70
1337;DHT22;662;48.814;9.318;2024-03-17T06:25:05;9.20;74.80
1337;DHT22;662;48.814;9.318;2024-03-17T06:27:30;9.20;75.00
1337;DHT22;662;48.814;9.318;2024-03-17T06:29:56;9.20;75.00
1337;DHT22;662;48.814;9.318;2024-03-17T06:32:22;9.20;75.00
1337;DHT22;662;48.814;9.318;2024-03-17T06:34:48;9.20;75.10
1337;DHT22;662;48.814;9.318;2024-03-17T06:37:13;9.20;75.10
1337;DHT22;662;48.814;9.318;2024-03-17T06:39:39;9.20;75.00
1337;DHT22;662;48.814;9.318;2024-03-17T06:42:05;9.20;75.00
1337;DHT22;662;48.814;9.318;2024-03-17T06:44:30;9.30;75.20
1337;DHT22;662;48.814;9.318;2024-03-17T06:46:58;9.30;75.20
1337;DHT22;662;48.814;9.318;2024-03-17T06:49:23;9.40;75.20
1337;DHT22;662;48.814;9.318;2024-03-17T06:51:49;9.40;75.00
1337;DHT22;662;48.814;9.318;2024-03-17T06:54:15;9.50;75.00
1337;DHT22;662;48.814;9.318;2024-03-17T06:56:41;9.60;75.00
1337;DHT22;662;48.814;9.318;2024-03-17T06:59:06;9.70;75.00
1337;DHT22;662;48.814;9.318;2024-03-17T07:01:32;9.70;74.90
1337;DHT22;662;48.814;9.318;2024-03-17T07:03:59;9.80;74.90
1337;DHT22;662;48.814;9.318;2024-03-17T07:06:24;9.90;74.90
1337;DHT22;662;48.814;9.318;2024-03-17T07:08:52;9.90;74.70
1337;DHT22;662;48.814;9.318;2024-03-17T07:11:30;10.00;73.40
1337;DHT22;662;48.814;9.318;2024-03-17T07:13:56;10.10;73.30
1337;DHT22;662;48.814;9.318;2024-03-17T07:16:21;10.10;73.00
1337;DHT22;662;48.814;9.318;2024-03-17T07:18:50;10.10;72.80
1337;DHT22;662;48.814;9.318;2024-03-17T07:21:15;10.20;72.80
1337;DHT22;662;48.814;9.318;2024-03-17T07:23:41;10.20;72.70
1337;DHT22;662;48.814;9.318;2024-03-17T07:26:07;10.20;72.50
1337;DHT22;662;48.814;9.318;2024-03-17T07:28:34;10.20;72.60
1337;DHT22;662;48.814;9.318;2024-03-17T07:31:00;10.20;72.60
1337;DHT22;662;48.814;9.318;2024-03-17T07:33:27;10.20;72.70
1337;DHT22;662;48.814;9.318;2024-03-17T07:35:54;10.30;72.70
1337;DHT22;662;48.814;9.318;2024-03-17T07:38:23;10.30;72.70
1337;DHT22;662;48.814;9.318;2024-03-17T07:41:03;10.30;72.70
1337;DHT22;662;48.814;9.318;2024-03-17T07:43:31;10.30;72.50
1337;DHT22;662;48.814;9.318;2024-03-17T07:48:30;10.40;72.60
1337;DHT22;662;48.814;9.318;2024-03-17T07:50:57;10.50;72.70
1337;DHT22;662;48.814;9.318;2024-03-17T07:53:23;10.50;72.60
1337;DHT22;662;48.814;9.318;2024-03-17T07:58:31;10.70;72.50
1337;DHT22;662;48.814;9.318;2024-03-17T08:01:01;10.90;72.40
1337;DHT22;662;48.814;9.318;2024-03-17T08:03:34;11.00;72.40
1337;DHT22;662;48.814;9.318;2024-03-17T08:06:01;11.20;72.30
1337;DHT22;662;48.814;9.318;2024-03-17T08:08:27;11.30;72.00
1337;DHT22;662;48.814;9.318;2024-03-17T08:10:53;11.40;71.80
1337;DHT22;662;48.814;9.318;2024-03-17T08:13:20;11.50;71.70
1337;DHT22;662;48.814;9.318;2024-03-17T08:15:54;11.70;71.70
1337;DHT22;662;48.814;9.318;2024-03-17T08:18:20;11.80;71.60
1337;DHT22;662;48.814;9.318;2024-03-17T08:20:45;11.90;71.20
1337;DHT22;662;48.814;9.318;2024-03-17T08:23:12;11.90;70.70
1337;DHT22;662;48.814;9.318;2024-03-17T08:25:39;12.00;70.60
1337;DHT22;662;48.814;9.318;2024-03-17T08:28:05;12.00;70.60
1337;DHT22;662;48.814;9.318;2024-03-17T08:30:32;12.10;70.50
1337;DHT22;662;48.814;9.318;2024-03-17T08:32:58;12.10;70.30
1337;DHT22;662;48.814;9.318;2024-03-17T08:35:24;12.20;70.30
1337;DHT22;662;48.814;9.318;2024-03-17T08:37:50;12.20;70.00
1337;DHT22;662;48.814;9.318;2024-03-17T08:40:22;12.30;69.80
1337;DHT22;662;48.814;9.318;2024-03-17T08:42:50;12.40;69.90
1337;DHT22;662;48.814;9.318;2024-03-17T08:45:16;12.40;69.60
1337;DHT22;662;48.814;9.318;2024-03-17T08:47:42;12.50;69.40
1337;DHT22;662;48.814;9.318;2024-03-17T08:50:08;12.60;69.20
1337;DHT22;662;48.814;9.318;2024-03-17T08:52:34;12.70;68.50
1337;DHT22;662;48.814;9.318;2024-03-17T08:55:00;12.80;68.60
1337;DHT22;662;48.814;9.318;2024-03-17T08:57:29;12.90;68.40
1337;DHT22;662;48.814;9.318;2024-03-17T08:59:55;12.90;68.30
1337;DHT22;662;48.814;9.318;2024-03-17T09:02:20;13.00;68.40
1337;DHT22;662;48.814;9.318;2024-03-17T09:04:48;13.30;68.50
1337;DHT22;662;48.814;9.318;2024-03-17T09:07:14;13.90;68.60
1337;DHT22;662;48.814;9.318;2024-03-17T09:09:41;14.30;67.10
1337;DHT22;662;48.814;9.318;2024-03-17T09:12:07;14.40;66.00
1337;DHT22;662;48.814;9.318;2024-03-17T09:14:33;14.80;65.90
1337;DHT22;662;48.814;9.318;2024-03-17T09:16:58;15.40;65.60
1337;DHT22;662;48.814;9.318;2024-03-17T09:19:24;15.80;64.30
1337;DHT22;662;48.814;9.318;2024-03-17T09:21:50;16.20;63.10
1337;DHT22;662;48.814;9.318;2024-03-17T09:24:15;16.70;61.60
1337;DHT22;662;48.814;9.318;2024-03-17T09:26:41;17.00;60.20
1337;DHT22;662;48.814;9.318;2024-03-17T09:29:06;17.40;59.20
1337;DHT22;662;48.814;9.318;2024-03-17T09:31:32;17.80;58.30
1337;DHT22;662;48.814;9.318;2024-03-17T09:34:03;18.10;57.50
1337;DHT22;662;48.814;9.318;2024-03-17T09:36:29;18.50;56.60
1337;DHT22;662;48.814;9.318;2024-03-17T09:38:56;18.60;55.60
1337;DHT22;662;48.814;9.318;2024-03-17T09:41:23;18.60;55.10
1337;DHT22;662;48.814;9.318;2024-03-17T09:43:57;18.50;54.70
1337;DHT22;662;48.814;9.318;2024-03-17T09:46:23;18.40;54.90
1337;DHT22;662;48.814;9.318;2024-03-17T09:48:50;18.30;54.80
1337;DHT22;662;48.814;9.318;2024-03-17T09:51:25;18.10;54.80
1337;DHT22;662;48.814;9.318;2024-03-17T09:53:51;18.00;54.80
1337;DHT22;662;48.814;9.318;2024-03-17T09:56:19;17.90;54.90
1337;DHT22;662;48.814;9.318;2024-03-17T09:58:46;18.00;55.20
1337;DHT22;662;48.814;9.318;2024-03-17T10:01:12;18.20;55.30
1337;DHT22;662;48.814;9.318;2024-03-17T10:03:52;18.40;54.40
1337;DHT22;662;48.814;9.318;2024-03-17T10:06:29;18.40;53.00
1337;DHT22;662;48.814;9.318;2024-03-17T10:08:56;18.30;51.90
1337;DHT22;662;48.814;9.318;2024-03-17T10:11:25;18.40;52.50
1337;DHT22;662;48.814;9.318;2024-03-17T10:14:04;18.30;52.30
1337;DHT22;662;48.814;9.318;2024-03-17T10:16:37;18.20;52.40
1337;DHT22;662;48.814;9.318;2024-03-17T10:19:16;18.10;52.20
1337;DHT22;662;48.814;9.318;2024-03-17T10:21:46;18.00;51.80
1337;DHT22;662;48.814;9.318;2024-03-17T10:24:24;18.10;51.70
1337;DHT22;662;48.814;9.318;2024-03-17T10:26:54;18.10;51.30
1337;DHT22;662;48.814;9.318;2024-03-17T10:29:23;18.10;51.10
1337;DHT22;662;48.814;9.318;2024-03-17T10:31:56;18.10;51.30
1337;DHT22;662;48.814;9.318;2024-03-17T10:34:23;18.00;51.00
1337;DHT22;662;48.814;9.318;2024-03-17T10:37:17;17.90;50.80
1337;DHT22;662;48.814;9.318;2024-03-17T10:39:46;17.80;50.00
1337;DHT22;662;48.814;9.318;2024-03-17T10:42:13;17.70;50.10
1337;DHT22;662;48.814;9.318;2024-03-17T10:44:43;17.70;50.10
1337;DHT22;662;48.814;9.318;2024-03-17T10:47:22;17.60;50.20
1337;DHT22;662;48.814;9.318;2024-03-17T10:49:50;17.60;50.10
1337;DHT22;662;48.814;9.318;2024-03-17T10:52:18;17.60;49.00
1337;DHT22;662;48.814;9.318;2024-03-17T10:54:51;17.60;49.00
1337;DHT22;662;48.814;9.318;2024-03-17T11:00:10;17.60;48.40
1337;DHT22;662;48.814;9.318;2024-03-17T11:02:40;17.60;48.60
1337;DHT22;662;48.814;9.318;2024-03-17T11:05:22;17.70;48.90
1337;DHT22;662;48.814;9.318;2024-03-17T11:07:50;17.70;48.70
1337;DHT22;662;48.814;9.318;2024-03-17T11:10:24;17.80;48.80
1337;DHT22;662;48.814;9.318;2024-03-17T11:12:51;17.90;48.90
1337;DHT22;662;48.814;9.318;2024-03-17T11:17:54;18.00;48.70
1337;DHT22;662;48.814;9.318;2024-03-17T11:20:24;18.10;48.70
1337;DHT22;662;48.814;9.318;2024-03-17T11:22:51;18.30;48.40
1337;DHT22;662;48.814;9.318;2024-03-17T11:27:56;18.30;46.60
1337;DHT22;662;48.814;9.318;2024-03-17T11:39:02;17.90;48.50
1337;DHT22;662;48.814;9.318;2024-03-17T11:41:38;17.90;49.00
1337;DHT22;662;48.814;9.318;2024-03-17T11:51:51;17.60;49.40
1337;DHT22;662;48.814;9.318;2024-03-17T11:54:19;17.60;49.60
1337;DHT22;662;48.814;9.318;2024-03-17T11:56:47;17.60;49.80
1337;DHT22;662;48.814;9.318;2024-03-17T11:59:14;17.70;49.80
1337;DHT22;662;48.814;9.318;2024-03-17T12:01:43;17.80;49.60
1337;DHT22;662;48.814;9.318;2024-03-17T12:04:10;18.10;49.50
1337;DHT22;662;48.814;9.318;2024-03-17T12:06:37;18.40;49.30
1337;DHT22;662;48.814;9.318;2024-03-17T12:09:22;18.70;48.60
1337;DHT22;662;48.814;9.318;2024-03-17T12:12:01;19.10;48.30
1337;DHT22;662;48.814;9.318;2024-03-17T12:14:27;19.50;47.80
1337;DHT22;662;48.814;9.318;2024-03-17T12:16:55;19.80;47.40
1337;DHT22;662;48.814;9.318;2024-03-17T12:19:22;20.00;46.50
1337;DHT22;662;48.814;9.318;2024-03-17T12:21:55;20.10;46.40
1337;DHT22;662;48.814;9.318;2024-03-17T12:24:24;20.10;46.00
1337;DHT22;662;48.814;9.318;2024-03-17T12:26:51;20.10;45.70
1337;DHT22;662;48.814;9.318;2024-03-17T12:29:28;20.20;45.60
1337;DHT22;662;48.814;9.318;2024-03-17T12:32:17;20.30;45.80
1337;DHT22;662;48.814;9.318;2024-03-17T12:34:49;20.40;45.70
1337;DHT22;662;48.814;9.318;2024-03-17T12:37:26;20.40;44.20
1337;DHT22;662;48.814;9.318;2024-03-17T12:40:04;20.30;44.30
1337;DHT22;662;48.814;9.318;2024-03-17T12:42:30;20.20;43.80
1337;DHT22;662;48.814;9.318;2024-03-17T12:45:02;20.20;44.20
1337;DHT22;662;48.814;9.318;2024-03-17T12:47:30;20.20;44.60
1337;DHT22;662;48.814;9.318;2024-03-17T12:49:59;20.20;44.70
1337;DHT22;662;48.814;9.318;2024-03-17T12:52:30;20.20;44.70
1337;DHT22;662;48.814;9.318;2024-03-17T12:55:04;20.10;44.50
1337;DHT22;662;48.814;9.318;2024-03-17T13:01:07;19.90;44.50
1337;DHT22;662;48.814;9.318;2024-03-17T13:03:36;19.70;44.30
1337;DHT22;662;48.814;9.318;2024-03-17T13:06:06;19.50;44.80
1337;DHT22;662;48.814;9.318;2024-03-17T13:08:34;19.30;45.80
1337;DHT22;662;48.814;9.318;2024-03-17T13:11:00;19.20;45.50
1337;DHT22;662;48.814;9.318;2024-03-17T13:13:29;19.00;45.90
1337;DHT22;662;48.814;9.318;2024-03-17T13:15:55;19.00;46.30
1337;DHT22;662;48.814;9.318;2024-03-17T13:18:21;18.90;46.40
1337;DHT22;662;48.814;9.318;2024-03-17T13:20:47;18.80;46.50
1337;DHT22;662;48.814;9.318;2024-03-17T13:23:15;18.70;46.70
1337;DHT22;662;48.814;9.318;2024-03-17T13:25:41;18.60;46.90
1337;DHT22;662;48.814;9.318;2024-03-17T13:28:09;18.50;47.50
1337;DHT22;662;48.814;9.318;2024-03-17T13:30:35;18.50;47.10
1337;DHT22;662;48.814;9.318;2024-03-17T13:33:05;18.50;47.20
1337;DHT22;662;48.814;9.318;2024-03-17T13:35:38;18.40;47.20
1337;DHT22;662;48.814;9.318;2024-03-17T13:38:05;18.50;47.10
1337;DHT22;662;48.814;9.318;2024-03-17T13:40:33;18.50;46.90
1337;DHT22;662;48.814;9.318;2024-03-17T13:42:59;18.50;46.70
1337;DHT22;662;48.814;9.318;2024-03-17T13:45:28;18.60;46.90
1337;DHT22;662;48.814;9.318;2024-03-17T13:47:57;18.80;47.10
1337;DHT22;662;48.814;9.318;2024-03-17T13:50:24;18.80;47.00
1337;DHT22;662;48.814;9.318;2024-03-17T13:52:50;18.80;47.00
1337;DHT22;662;48.814;9.318;2024-03-17T13:55:22;18.80;46.90
1337;DHT22;662;48.814;9.318;2024-03-17T13:57:53;18.80;46.70
1337;DHT22;662;48.814;9.318;2024-03-17T14:00:23;18.80;46.40
1337;DHT22;662;48.814;9.318;2024-03-17T14:02:50;18.80;46.50
1337;DHT22;662;48.814;9.318;2024-03-17T14:05:20;18.80;46.60
1337;DHT22;662;48.814;9.318;2024-03-17T14:07:47;18.80;46.50
1337;DHT22;662;48.814;9.318;2024-03-17T14:10:15;18.70;46.50
1337;DHT22;662;48.814;9.318;2024-03-17T14:12:41;18.70;46.50
1337;DHT22;662;48.814;9.318;2024-03-17T14:15:09;18.80;46.70
1337;DHT22;662;48.814;9.318;2024-03-17T14:17:37;19.00;46.40
1337;DHT22;662;48.814;9.318;2024-03-17T14:20:03;19.40;46.20
1337;DHT22;662;48.814;9.318;2024-03-17T14:22:31;19.80;45.70
1337;DHT22;662;48.814;9.318;2024-03-17T14:24:57;20.20;45.20
1337;DHT22;662;48.814;9.318;2024-03-17T14:27:23;20.40;44.80
1337;DHT22;662;48.814;9.318;2024-03-17T14:29:49;20.50;44.40
1337;DHT22;662;48.814;9.318;2024-03-17T14:32:15;20.50;44.00
1337;DHT22;662;48.814;9.318;2024-03-17T14:34:41;20.40;43.90
1337;DHT22;662;48.814;9.318;2024-03-17T14:37:06;20.30;44.00
1337;DHT22;662;48.814;9.318;2024-03-17T14:39:32;20.20;44.30
1337;DHT22;662;48.814;9.318;2024-03-17T14:41:58;20.10;44.30
1337;DHT22;662;48.814;9.318;2024-03-17T14:44:24;20.10;44.40
1337;DHT22;662;48.814;9.318;2024-03-17T14:46:50;20.20;44.30
1337;DHT22;662;48.814;9.318;2024-03-17T14:49:21;20.20;44.30
1337;DHT22;662;48.814;9.318;2024-03-17T14:51:47;20.20;44.10
1337;DHT22;662;48.814;9.318;2024-03-17T14:54:13;20.10;44.10
1337;DHT22;662;48.814;9.318;2024-03-17T14:56:39;20.00;44.10
1337;DHT22;662;48.814;9.318;2024-03-17T14:59:05;20.00;44.20
1337;DHT22;662;48.814;9.318;2024-03-17T15:01:31;20.00;44.30
1337;DHT22;662;48.814;9.318;2024-03-17T15:03:57;20.10;44.50
1337;DHT22;662;48.814;9.318;2024-03-17T15:06:22;20.10;44.40
1337;DHT22;662;48.814;9.318;2024-03-17T15:08:50;20.00;44.10
1337;DHT22;662;48.814;9.318;2024-03-17T15:11:15;19.90;43.80
1337;DHT22;662;48.814;9.318;2024-03-17T15:13:43;19.90;44.20
1337;DHT22;662;48.814;9.318;2024-03-17T15:16:09;19.90;44.50
1337;DHT22;662;48.814;9.318;2024-03-17T15:18:35;19.90;44.80
1337;DHT22;662;48.814;9.318;2024-03-17T15:21:01;19.90;44.80
1337;DHT22;662;48.814;9.318;2024-03-17T15:23:30;19.80;44.00
1337;DHT22;662;48.814;9.318;2024-03-17T15:26:05;19.60;44.10
1337;DHT22;662;48.814;9.318;2024-03-17T15:28:40;19.40;44.10
1337;DHT22;662;48.814;9.318;2024-03-17T15:31:07;19.30;44.50
1337;DHT22;662;48.814;9.318;2024-03-17T15:33:33;19.20;44.40
1337;DHT22;662;48.814;9.318;2024-03-17T15:36:08;19.10;44.80
1337;DHT22;662;48.814;9.318;2024-03-17T15:38:37;18.90;45.20
1337;DHT22;662;48.814;9.318;2024-03-17T15:41:04;18.90;45.30
1337;DHT22;662;48.814;9.318;2024-03-17T15:43:37;18.80;45.70
1337;DHT22;662;48.814;9.318;2024-03-17T15:46:08;18.60;45.70
1337;DHT22;662;48.814;9.318;2024-03-17T15:48:34;18.50;45.60
1337;DHT22;662;48.814;9.318;2024-03-17T15:50:59;18.40;46.00
1337;DHT22;662;48.814;9.318;2024-03-17T15:53:25;18.20;46.40
1337;DHT22;662;48.814;9.318;2024-03-17T15:55:55;18.10;46.60
1337;DHT22;662;48.814;9.318;2024-03-17T15:58:21;18.00;46.90
1337;DHT22;662;48.814;9.318;2024-03-17T16:00:46;17.90;47.00
1337;DHT22;662;48.814;9.318;2024-03-17T16:03:13;17.70;47.20
1337;DHT22;662;48.814;9.318;2024-03-17T16:05:38;17.60;47.50
1337;DHT22;662;48.814;9.318;2024-03-17T16:08:08;17.50;47.80
1337;DHT22;662;48.814;9.318;2024-03-17T16:10:35;17.40;48.20
1337;DHT22;662;48.814;9.318;2024-03-17T16:13:01;17.30;48.40
1337;DHT22;662;48.814;9.318;2024-03-17T16:15:27;17.20;48.50
1337;DHT22;662;48.814;9.318;2024-03-17T16:17:54;17.10;48.70
1337;DHT22;662;48.814;9.318;2024-03-17T16:23:18;16.90;49.00
1337;DHT22;662;48.814;9.318;2024-03-17T16:25:48;16.80;49.20
1337;DHT22;662;48.814;9.318;2024-03-17T16:28:14;16.70;49.30
1337;DHT22;662;48.814;9.318;2024-03-17T16:30:41;16.60;49.40
1337;DHT22;662;48.814;9.318;2024-03-17T16:33:08;16.60;49.70
1337;DHT22;662;48.814;9.318;2024-03-17T16:35:37;16.50;50.40
1337;DHT22;662;48.814;9.318;2024-03-17T16:38:03;16.40;50.00
1337;DHT22;662;48.814;9.318;2024-03-17T16:40:28;16.30;50.20
1337;DHT22;662;48.814;9.318;2024-03-17T16:42:55;16.30;50.40
1337;DHT22;662;48.814;9.318;2024-03-17T16:45:25;16.20;50.50
1337;DHT22;662;48.814;9.318;2024-03-17T16:47:51;16.10;50.60
1337;DHT22;662;48.814;9.318;2024-03-17T16:50:17;16.10;50.80
1337;DHT22;662;48.814;9.318;2024-03-17T16:52:43;16.00;50.80
1337;DHT22;662;48.814;9.318;2024-03-17T16:55:09;15.90;50.80
1337;DHT22;662;48.814;9.318;2024-03-17T16:57:35;15.90;51.00
1337;DHT22;662;48.814;9.318;2024-03-17T17:00:05;15.80;51.10
1337;DHT22;662;48.814;9.318;2024-03-17T17:02:39;15.80;51.20
1337;DHT22;662;48.814;9.318;2024-03-17T17:05:05;15.80;51.40